createdAt,value
2023-05-14T00:00:24.263Z,11.64
2023-05-14T00:01:24.002Z,11.62
2023-05-14T00:02:24.072Z,11.61
2023-05-14T00:03:24.036Z,11.61
2023-05-14T00:04:23.999Z,11.62
2023-05-14T00:05:23.928Z,11.61
2023-05-14T00:06:23.970Z,11.59
2023-05-14T00:07:23.926Z,11.56
2023-05-14T00:08:23.900Z,11.54
2023-05-14T00:09:23.910Z,11.54
2023-05-14T00:10:24.126Z,11.57
2023-05-14T00:11:23.886Z,11.59
2023-05-14T00:12:23.894Z,11.57
2023-05-14T00:13:23.849Z,11.57
2023-05-14T00:14:23.837Z,11.57
2023-05-14T00:15:23.845Z,11.56
2023-05-14T00:16:23.859Z,11.54
2023-05-14T00:17:23.821Z,11.56
2023-05-14T00:18:23.813Z,11.57
2023-05-14T00:19:23.792Z,11.56
2023-05-14T00:20:23.982Z,11.57
2023-05-14T00:21:23.797Z,11.56
2023-05-14T00:22:23.756Z,11.56
2023-05-14T00:23:23.744Z,11.56
2023-05-14T00:24:23.801Z,11.56
2023-05-14T00:25:23.741Z,11.54
2023-05-14T00:26:23.721Z,11.54
2023-05-14T00:27:23.764Z,11.57
2023-05-14T00:28:23.692Z,11.56
2023-05-14T00:29:23.679Z,11.56
2023-05-14T00:30:23.940Z,11.56
2023-05-14T00:31:23.725Z,11.57
2023-05-14T00:32:23.674Z,11.56
2023-05-14T00:33:23.650Z,11.56
2023-05-14T00:34:23.667Z,11.56
2023-05-14T00:35:23.632Z,11.57
2023-05-14T00:36:23.625Z,11.56
2023-05-14T00:37:23.596Z,11.56
2023-05-14T00:38:23.612Z,11.56
2023-05-14T00:39:23.613Z,11.56
2023-05-14T00:40:24.367Z,11.56
2023-05-14T00:41:23.560Z,11.56
2023-05-14T00:42:23.557Z,11.54
2023-05-14T00:43:23.540Z,11.54
2023-05-14T00:44:23.560Z,11.54
2023-05-14T00:45:23.511Z,11.54
2023-05-14T00:46:23.535Z,11.53
2023-05-14T00:47:23.525Z,11.53
2023-05-14T00:48:23.512Z,11.52
2023-05-14T00:49:23.485Z,11.49
2023-05-14T00:50:23.833Z,11.47
2023-05-14T00:51:23.455Z,11.46
2023-05-14T00:52:23.447Z,11.44
2023-05-14T00:53:23.456Z,11.46
2023-05-14T00:54:23.424Z,11.44
2023-05-14T00:55:23.446Z,11.44
2023-05-14T00:56:23.480Z,11.43
2023-05-14T00:57:23.410Z,11.41
2023-05-14T00:58:23.400Z,11.41
2023-05-14T00:59:23.373Z,11.43
2023-05-14T01:00:23.652Z,11.43
2023-05-14T01:01:23.393Z,11.44
2023-05-14T01:02:23.437Z,11.43
2023-05-14T01:03:23.491Z,11.41
2023-05-14T01:04:23.336Z,11.41
2023-05-14T01:05:23.305Z,11.41
2023-05-14T01:06:23.299Z,11.41
2023-05-14T01:07:23.300Z,11.38
2023-05-14T01:08:23.315Z,11.38
2023-05-14T01:09:23.272Z,11.39
2023-05-14T01:10:23.451Z,11.39
2023-05-14T01:11:23.245Z,11.39
2023-05-14T01:12:23.252Z,11.38
2023-05-14T01:13:23.239Z,11.38
2023-05-14T01:14:23.232Z,11.38
2023-05-14T01:15:23.244Z,11.36
2023-05-14T01:16:23.244Z,11.36
2023-05-14T01:17:23.205Z,11.36
2023-05-14T01:18:23.184Z,11.39
2023-05-14T01:19:23.156Z,11.36
2023-05-14T01:20:23.430Z,11.38
2023-05-14T01:21:23.156Z,11.38
2023-05-14T01:22:23.137Z,11.35
2023-05-14T01:23:23.144Z,11.36
2023-05-14T01:24:23.123Z,11.36
2023-05-14T01:25:23.118Z,11.35
2023-05-14T01:26:23.124Z,11.36
2023-05-14T01:27:23.078Z,11.35
2023-05-14T01:28:23.072Z,11.35
2023-05-14T01:29:23.110Z,11.34
2023-05-14T01:30:23.319Z,11.32
2023-05-14T01:31:23.066Z,11.32
2023-05-14T01:32:23.064Z,11.31
2023-05-14T01:33:23.013Z,11.29
2023-05-14T01:34:23.017Z,11.31
2023-05-14T01:35:23.019Z,11.31
2023-05-14T01:36:23.017Z,11.29
2023-05-14T01:37:22.985Z,11.31
2023-05-14T01:38:22.980Z,11.29
2023-05-14T01:39:22.970Z,11.29
2023-05-14T01:40:23.166Z,11.29
2023-05-14T01:41:22.935Z,11.29
2023-05-14T01:42:22.924Z,11.29
2023-05-14T01:43:23.009Z,11.28
2023-05-14T01:44:22.948Z,11.28
2023-05-14T01:45:22.908Z,11.29
2023-05-14T01:46:22.905Z,11.27
2023-05-14T01:47:22.901Z,11.28
2023-05-14T01:48:22.875Z,11.24
2023-05-14T01:49:22.865Z,11.17
2023-05-14T01:50:23.031Z,11.13
2023-05-14T01:51:22.824Z,11.07
2023-05-14T01:52:22.826Z,11.03
2023-05-14T01:53:22.812Z,11.02
2023-05-14T01:54:22.833Z,10.99
2023-05-14T01:55:22.793Z,10.99
2023-05-14T01:56:22.776Z,10.96
2023-05-14T01:57:22.774Z,10.94
2023-05-14T01:58:22.798Z,10.95
2023-05-14T01:59:22.741Z,10.96
2023-05-14T02:00:22.872Z,10.95
2023-05-14T02:01:22.767Z,10.94
2023-05-14T02:02:22.729Z,10.94
2023-05-14T02:03:22.736Z,10.94
2023-05-14T02:04:22.772Z,10.95
2023-05-14T02:05:22.677Z,10.98
2023-05-14T02:06:22.676Z,10.98
2023-05-14T02:07:22.680Z,10.98
2023-05-14T02:08:22.677Z,10.95
2023-05-14T02:09:22.636Z,10.91
2023-05-14T02:10:22.906Z,10.88
2023-05-14T02:11:22.636Z,10.86
2023-05-14T02:12:22.639Z,10.86
2023-05-14T02:13:22.598Z,10.86
2023-05-14T02:14:22.592Z,10.83
2023-05-14T02:15:22.623Z,10.84
2023-05-14T02:16:22.625Z,10.83
2023-05-14T02:17:22.577Z,10.81
2023-05-14T02:18:22.577Z,10.80
2023-05-14T02:19:22.533Z,10.78
2023-05-14T02:20:22.831Z,10.76
2023-05-14T02:21:22.535Z,10.73
2023-05-14T02:22:22.521Z,10.70
2023-05-14T02:23:34.067Z,10.66
2023-05-14T02:24:22.497Z,10.62
2023-05-14T02:25:22.475Z,10.62
2023-05-14T02:26:22.481Z,10.60
2023-05-14T02:27:22.458Z,10.59
2023-05-14T02:28:22.485Z,10.59
2023-05-14T02:29:22.432Z,10.58
2023-05-14T02:30:22.576Z,10.59
2023-05-14T02:31:22.465Z,10.55
2023-05-14T02:32:22.523Z,10.53
2023-05-14T02:33:22.548Z,10.52
2023-05-14T02:34:23.221Z,10.51
2023-05-14T02:35:22.423Z,10.47
2023-05-14T02:36:22.383Z,10.44
2023-05-14T02:37:22.417Z,10.44
2023-05-14T02:38:22.405Z,10.46
2023-05-14T02:39:22.385Z,10.46
2023-05-14T02:40:22.486Z,10.44
2023-05-14T02:41:22.328Z,10.43
2023-05-14T02:42:22.303Z,10.43
2023-05-14T02:43:22.297Z,10.42
2023-05-14T02:44:22.305Z,10.42
2023-05-14T02:45:22.295Z,10.39
2023-05-14T02:46:22.322Z,10.39
2023-05-14T02:47:22.293Z,10.39
2023-05-14T02:48:22.244Z,10.40
2023-05-14T02:49:22.243Z,10.39
2023-05-14T02:50:22.386Z,10.39
2023-05-14T02:51:22.208Z,10.42
2023-05-14T02:52:22.213Z,10.39
2023-05-14T02:53:22.204Z,10.37
2023-05-14T02:54:22.203Z,10.37
2023-05-14T02:55:22.172Z,10.39
2023-05-14T02:56:22.185Z,10.40
2023-05-14T02:57:22.151Z,10.40
2023-05-14T02:58:25.478Z,10.39
2023-05-14T02:59:22.164Z,10.37
2023-05-14T03:00:22.274Z,10.37
2023-05-14T03:01:22.159Z,10.37
2023-05-14T03:02:22.148Z,10.36
2023-05-14T03:03:22.140Z,10.39
2023-05-14T03:04:22.099Z,10.37
2023-05-14T03:05:22.079Z,10.39
2023-05-14T03:06:22.091Z,10.42
2023-05-14T03:07:22.050Z,10.43
2023-05-14T03:08:22.058Z,10.47
2023-05-14T03:09:22.040Z,10.47
2023-05-14T03:10:22.264Z,10.52
2023-05-14T03:11:22.006Z,10.51
2023-05-14T03:12:22.008Z,10.53
2023-05-14T03:13:21.957Z,10.47
2023-05-14T03:14:21.928Z,10.47
2023-05-14T03:15:21.915Z,10.47
2023-05-14T03:16:21.925Z,10.52
2023-05-14T03:17:21.932Z,10.51
2023-05-14T03:18:21.884Z,10.47
2023-05-14T03:19:21.872Z,10.43
2023-05-14T03:20:22.022Z,10.39
2023-05-14T03:21:21.870Z,10.34
2023-05-14T03:22:21.860Z,10.33
2023-05-14T03:23:21.828Z,10.32
2023-05-14T03:24:21.823Z,10.30
2023-05-14T03:25:21.824Z,10.28
2023-05-14T03:26:21.818Z,10.26
2023-05-14T03:27:21.811Z,10.24
2023-05-14T03:28:21.784Z,10.30
2023-05-14T03:29:21.766Z,10.34
2023-05-14T03:30:22.166Z,10.37
2023-05-14T03:31:21.874Z,10.36
2023-05-14T03:32:21.792Z,10.36
2023-05-14T03:33:21.721Z,10.34
2023-05-14T03:34:21.744Z,10.34
2023-05-14T03:35:21.710Z,10.34
2023-05-14T03:36:21.732Z,10.33
2023-05-14T03:37:21.683Z,10.36
2023-05-14T03:38:21.687Z,10.37
2023-05-14T03:39:21.681Z,10.40
2023-05-14T03:40:21.888Z,10.39
2023-05-14T03:41:21.673Z,10.37
2023-05-14T03:42:21.638Z,10.36
2023-05-14T03:43:21.646Z,10.34
2023-05-14T03:44:21.609Z,10.28
2023-05-14T03:45:21.609Z,10.32
2023-05-14T03:46:21.626Z,10.28
2023-05-14T03:47:21.576Z,10.28
2023-05-14T03:48:21.730Z,10.24
2023-05-14T03:49:27.579Z,10.24
2023-05-14T03:50:21.726Z,10.25
2023-05-14T03:51:21.539Z,10.25
2023-05-14T03:52:21.537Z,10.32
2023-05-14T03:53:21.516Z,10.30
2023-05-14T03:54:21.552Z,10.32
2023-05-14T03:55:21.529Z,10.30
2023-05-14T03:56:21.494Z,10.32
2023-05-14T03:57:21.492Z,10.30
2023-05-14T03:58:21.526Z,10.28
2023-05-14T03:59:21.480Z,10.28
2023-05-14T04:00:21.858Z,10.30
2023-05-14T04:01:21.447Z,10.28
2023-05-14T04:02:21.497Z,10.28
2023-05-14T04:03:21.596Z,10.32
2023-05-14T04:04:21.533Z,10.33
2023-05-14T04:05:21.404Z,10.34
2023-05-14T04:06:21.398Z,10.37
2023-05-14T04:07:21.382Z,10.37
2023-05-14T04:08:21.421Z,10.36
2023-05-14T04:09:21.419Z,10.37
2023-05-14T04:10:21.501Z,10.36
2023-05-14T04:11:21.372Z,10.40
2023-05-14T04:12:21.342Z,10.40
2023-05-14T04:13:21.359Z,10.40
2023-05-14T04:14:21.342Z,10.40
2023-05-14T04:15:21.312Z,10.39
2023-05-14T04:16:21.325Z,10.39
2023-05-14T04:17:21.297Z,10.37
2023-05-14T04:18:21.287Z,10.34
2023-05-14T04:19:21.253Z,10.34
2023-05-14T04:20:21.331Z,10.33
2023-05-14T04:21:21.236Z,10.34
2023-05-14T04:22:21.299Z,10.37
2023-05-14T04:23:21.236Z,10.37
2023-05-14T04:24:21.220Z,10.39
2023-05-14T04:25:21.195Z,10.42
2023-05-14T04:26:21.187Z,10.43
2023-05-14T04:27:21.208Z,10.44
2023-05-14T04:28:21.174Z,10.47
2023-05-14T04:29:21.175Z,10.51
2023-05-14T04:30:21.474Z,10.47
2023-05-14T04:31:21.198Z,10.51
2023-05-14T04:32:21.169Z,10.44
2023-05-14T04:33:21.126Z,10.46
2023-05-14T04:34:21.097Z,10.47
2023-05-14T04:35:23.297Z,10.51
2023-05-14T04:36:21.094Z,10.52
2023-05-14T04:37:21.087Z,10.56
2023-05-14T04:38:21.056Z,10.52
2023-05-14T04:39:21.051Z,10.55
2023-05-14T04:40:21.102Z,10.52
2023-05-14T04:41:21.038Z,10.55
2023-05-14T04:42:21.037Z,10.59
2023-05-14T04:43:21.041Z,10.56
2023-05-14T04:44:20.998Z,10.53
2023-05-14T04:45:21.030Z,10.52
2023-05-14T04:46:21.038Z,10.52
2023-05-14T04:47:21.122Z,10.51
2023-05-14T04:48:20.955Z,10.51
2023-05-14T04:49:20.958Z,10.43
2023-05-14T04:50:21.061Z,10.40
2023-05-14T04:51:20.920Z,10.39
2023-05-14T04:52:20.911Z,10.37
2023-05-14T04:53:20.906Z,10.40
2023-05-14T04:54:20.953Z,10.40
2023-05-14T04:55:20.906Z,10.40
2023-05-14T04:56:20.918Z,10.44
2023-05-14T04:57:20.870Z,10.47
2023-05-14T04:58:20.859Z,10.51
2023-05-14T04:59:20.865Z,10.53
2023-05-14T05:00:20.870Z,10.56
2023-05-14T05:01:20.902Z,10.58
2023-05-14T05:02:20.812Z,10.60
2023-05-14T05:03:20.970Z,10.62
2023-05-14T05:04:20.844Z,10.63
2023-05-14T05:05:20.861Z,10.63
2023-05-14T05:06:20.851Z,10.63
2023-05-14T05:07:20.832Z,10.66
2023-05-14T05:08:20.822Z,10.68
2023-05-14T05:09:20.757Z,10.73
2023-05-14T05:10:20.773Z,10.73
2023-05-14T05:11:20.735Z,10.73
2023-05-14T05:12:20.707Z,10.70
2023-05-14T05:13:20.743Z,10.71
2023-05-14T05:14:20.787Z,10.73
2023-05-14T05:15:20.691Z,10.76
2023-05-14T05:16:20.743Z,10.78
2023-05-14T05:17:20.682Z,10.78
2023-05-14T05:18:20.671Z,10.81
2023-05-14T05:19:26.455Z,10.83
2023-05-14T05:20:20.737Z,10.84
2023-05-14T05:21:20.632Z,10.88
2023-05-14T05:22:20.631Z,10.91
2023-05-14T05:23:20.621Z,10.94
2023-05-14T05:24:20.620Z,10.92
2023-05-14T05:25:20.583Z,10.94
2023-05-14T05:26:20.601Z,10.92
2023-05-14T05:27:20.573Z,10.92
2023-05-14T05:28:20.542Z,10.95
2023-05-14T05:29:20.538Z,10.94
2023-05-14T05:30:20.526Z,10.98
2023-05-14T05:31:20.546Z,11.01
2023-05-14T05:32:20.530Z,11.03
2023-05-14T05:33:20.500Z,11.06
2023-05-14T05:34:20.487Z,11.07
2023-05-14T05:35:20.480Z,11.07
2023-05-14T05:36:20.482Z,11.06
2023-05-14T05:37:20.480Z,11.02
2023-05-14T05:38:20.453Z,11.02
2023-05-14T05:39:20.442Z,10.98
2023-05-14T05:40:20.474Z,10.98
2023-05-14T05:41:20.426Z,10.96
2023-05-14T05:42:20.402Z,11.01
2023-05-14T05:43:20.481Z,11.01
2023-05-14T05:44:20.382Z,11.07
2023-05-14T05:45:20.380Z,11.07
2023-05-14T05:46:20.407Z,11.10
2023-05-14T05:47:20.379Z,11.10
2023-05-14T05:48:20.343Z,11.09
2023-05-14T05:49:20.337Z,11.10
2023-05-14T05:50:20.354Z,11.09
2023-05-14T05:51:20.320Z,11.07
2023-05-14T05:52:20.305Z,11.06
2023-05-14T05:53:20.291Z,11.06
2023-05-14T05:54:20.274Z,11.07
2023-05-14T05:55:20.347Z,11.06
2023-05-14T05:56:20.253Z,11.07
2023-05-14T05:57:20.252Z,11.10
2023-05-14T05:58:20.254Z,11.11
2023-05-14T05:59:20.228Z,11.11
2023-05-14T06:00:20.224Z,11.10
2023-05-14T06:01:20.210Z,11.11
2023-05-14T06:02:20.318Z,11.11
2023-05-14T06:03:20.225Z,11.13
2023-05-14T06:04:20.211Z,11.14
2023-05-14T06:05:20.231Z,11.16
2023-05-14T06:06:20.160Z,11.17
2023-05-14T06:07:20.153Z,11.20
2023-05-14T06:08:20.132Z,11.20
2023-05-14T06:09:20.136Z,11.19
2023-05-14T06:10:20.120Z,11.16
2023-05-14T06:11:20.113Z,11.09
2023-05-14T06:12:20.104Z,11.07
2023-05-14T06:13:20.123Z,11.06
2023-05-14T06:14:20.089Z,11.03
2023-05-14T06:15:20.070Z,11.02
2023-05-14T06:16:20.133Z,11.03
2023-05-14T06:17:20.090Z,11.14
2023-05-14T06:18:20.053Z,11.21
2023-05-14T06:19:20.107Z,11.24
2023-05-14T06:20:20.007Z,11.25
2023-05-14T06:21:20.006Z,11.27
2023-05-14T06:22:19.981Z,11.32
2023-05-14T06:23:20.024Z,11.35
2023-05-14T06:24:19.967Z,11.39
2023-05-14T06:25:19.966Z,11.41
2023-05-14T06:26:19.948Z,11.41
2023-05-14T06:27:19.969Z,11.44
2023-05-14T06:28:19.938Z,11.49
2023-05-14T06:29:19.929Z,11.56
2023-05-14T06:30:19.956Z,11.67
2023-05-14T06:31:19.924Z,11.74
2023-05-14T06:32:20.136Z,11.78
2023-05-14T06:33:20.701Z,11.82
2023-05-14T06:34:19.878Z,11.83
2023-05-14T06:35:19.886Z,11.90
2023-05-14T06:36:19.842Z,11.96
2023-05-14T06:37:19.846Z,11.89
2023-05-14T06:38:19.828Z,11.72
2023-05-14T06:39:19.828Z,11.67
2023-05-14T06:40:19.806Z,11.67
2023-05-14T06:41:19.811Z,11.71
2023-05-14T06:42:19.799Z,11.75
2023-05-14T06:43:19.788Z,11.75
2023-05-14T06:44:19.805Z,11.78
2023-05-14T06:45:19.766Z,11.74
2023-05-14T06:46:19.757Z,11.74
2023-05-14T06:47:19.740Z,11.68
2023-05-14T06:48:19.842Z,11.70
2023-05-14T06:49:19.717Z,11.72
2023-05-14T06:50:19.707Z,11.75
2023-05-14T06:51:19.728Z,11.80
2023-05-14T06:52:19.683Z,11.83
2023-05-14T06:53:19.693Z,11.93
2023-05-14T06:54:19.668Z,12.04
2023-05-14T06:55:19.697Z,12.05
2023-05-14T06:56:19.678Z,12.16
2023-05-14T06:57:19.659Z,12.37
2023-05-14T06:58:19.664Z,12.54
2023-05-14T06:59:19.612Z,12.70
2023-05-14T07:00:19.621Z,12.70
2023-05-14T07:01:19.741Z,12.70
2023-05-14T07:02:19.573Z,12.71
2023-05-14T07:03:19.572Z,12.71
2023-05-14T07:04:19.642Z,12.75
2023-05-14T07:05:19.590Z,12.79
2023-05-14T07:06:19.592Z,12.79
2023-05-14T07:07:19.541Z,12.75
2023-05-14T07:08:19.512Z,12.67
2023-05-14T07:09:19.529Z,12.60
2023-05-14T07:10:19.512Z,12.62
2023-05-14T07:11:19.490Z,12.66
2023-05-14T07:12:19.466Z,12.67
2023-05-14T07:13:19.480Z,12.69
2023-05-14T07:14:19.460Z,12.71
2023-05-14T07:15:19.452Z,12.77
2023-05-14T07:16:19.434Z,12.75
2023-05-14T07:17:19.453Z,12.71
2023-05-14T07:18:19.404Z,12.71
2023-05-14T07:19:19.517Z,12.78
2023-05-14T07:20:19.395Z,12.82
2023-05-14T07:21:19.384Z,12.87
2023-05-14T07:22:19.379Z,12.93
2023-05-14T07:23:20.099Z,12.97
2023-05-14T07:24:19.393Z,12.93
2023-05-14T07:25:19.344Z,12.93
2023-05-14T07:26:19.329Z,12.89
2023-05-14T07:27:19.329Z,12.92
2023-05-14T07:28:19.337Z,12.95
2023-05-14T07:29:19.297Z,12.92
2023-05-14T07:30:19.366Z,12.96
2023-05-14T07:31:19.305Z,12.95
2023-05-14T07:32:19.296Z,12.97
2023-05-14T07:33:19.335Z,13.00
2023-05-14T07:34:19.269Z,13.06
2023-05-14T07:35:19.268Z,13.12
2023-05-14T07:36:19.229Z,13.18
2023-05-14T07:37:19.234Z,13.17
2023-05-14T07:38:19.227Z,13.24
2023-05-14T07:39:19.200Z,13.27
2023-05-14T07:40:19.196Z,13.40
2023-05-14T07:41:19.180Z,13.43
2023-05-14T07:42:28.301Z,13.51
2023-05-14T07:43:19.159Z,13.52
2023-05-14T07:44:19.142Z,13.59
2023-05-14T07:45:19.119Z,13.58
2023-05-14T07:46:19.130Z,13.59
2023-05-14T07:47:19.152Z,13.61
2023-05-14T07:48:19.110Z,13.59
2023-05-14T07:49:19.097Z,13.58
2023-05-14T07:50:19.105Z,13.51
2023-05-14T07:51:19.120Z,13.44
2023-05-14T07:52:19.222Z,13.52
2023-05-14T07:53:19.064Z,13.49
2023-05-14T07:54:19.058Z,13.58
2023-05-14T07:55:19.053Z,13.65
2023-05-14T07:56:19.028Z,13.65
2023-05-14T07:57:19.044Z,13.70
2023-05-14T07:58:19.094Z,13.77
2023-05-14T07:59:19.054Z,13.88
2023-05-14T08:00:18.990Z,14.04
2023-05-14T08:01:19.108Z,14.13
2023-05-14T08:02:19.108Z,14.16
2023-05-14T08:03:18.991Z,14.32
2023-05-14T08:04:19.013Z,14.31
2023-05-14T08:05:18.960Z,14.19
2023-05-14T08:06:18.927Z,14.13
2023-05-14T08:07:18.962Z,14.17
2023-05-14T08:08:18.909Z,14.09
2023-05-14T08:09:18.914Z,14.04
2023-05-14T08:10:18.876Z,14.02
2023-05-14T08:11:19.008Z,14.17
2023-05-14T08:12:18.857Z,14.35
2023-05-14T08:13:19.069Z,14.52
2023-05-14T08:14:18.856Z,14.68
2023-05-14T08:15:18.845Z,14.75
2023-05-14T08:16:18.967Z,14.87
2023-05-14T08:17:18.858Z,14.91
2023-05-14T08:18:18.788Z,14.94
2023-05-14T08:19:19.049Z,14.86
2023-05-14T08:20:18.787Z,14.86
2023-05-14T08:21:18.822Z,14.84
2023-05-14T08:22:18.748Z,14.78
2023-05-14T08:23:18.739Z,14.72
2023-05-14T08:24:18.731Z,14.71
2023-05-14T08:25:18.749Z,14.81
2023-05-14T08:26:18.723Z,14.98
2023-05-14T08:27:18.749Z,15.11
2023-05-14T08:28:18.710Z,15.19
2023-05-14T08:29:18.697Z,15.06
2023-05-14T08:30:18.717Z,15.02
2023-05-14T08:31:18.766Z,14.99
2023-05-14T08:32:23.492Z,15.02
2023-05-14T08:33:18.677Z,15.08
2023-05-14T08:34:18.640Z,15.15
2023-05-14T08:35:18.622Z,15.23
2023-05-14T08:36:18.616Z,15.26
2023-05-14T08:37:18.594Z,15.26
2023-05-14T08:38:18.644Z,15.13
2023-05-14T08:39:18.570Z,15.12
2023-05-14T08:40:18.571Z,15.15
2023-05-14T08:41:18.557Z,15.02
2023-05-14T08:42:18.579Z,14.80
2023-05-14T08:43:18.606Z,14.78
2023-05-14T08:44:18.549Z,14.87
2023-05-14T08:45:18.562Z,14.93
2023-05-14T08:46:18.519Z,14.95
2023-05-14T08:47:18.523Z,14.99
2023-05-14T08:48:18.601Z,15.05
2023-05-14T08:49:18.685Z,15.05
2023-05-14T08:50:19.899Z,15.13
2023-05-14T08:51:18.513Z,15.19
2023-05-14T08:52:18.504Z,15.20
2023-05-14T08:53:18.455Z,15.28
2023-05-14T08:54:18.461Z,15.38
2023-05-14T08:55:18.538Z,15.49
2023-05-14T08:56:18.411Z,15.60
2023-05-14T08:57:18.459Z,15.61
2023-05-14T08:58:18.443Z,15.63
2023-05-14T08:59:18.397Z,15.68
2023-05-14T09:00:18.381Z,15.88
2023-05-14T09:01:18.583Z,15.97
2023-05-14T09:02:18.450Z,15.96
2023-05-14T09:03:18.397Z,16.00
2023-05-14T09:04:18.504Z,16.16
2023-05-14T09:05:18.341Z,16.30
2023-05-14T09:06:18.377Z,16.38
2023-05-14T09:07:18.279Z,16.37
2023-05-14T09:08:18.347Z,16.40
2023-05-14T09:09:18.305Z,16.42
2023-05-14T09:10:18.371Z,16.49
2023-05-14T09:11:18.267Z,16.73
2023-05-14T09:12:18.288Z,16.88
2023-05-14T09:13:18.223Z,16.95
2023-05-14T09:14:18.293Z,17.07
2023-05-14T09:15:18.333Z,16.98
2023-05-14T09:16:18.404Z,16.88
2023-05-14T09:17:18.221Z,17.15
2023-05-14T09:18:18.294Z,17.32
2023-05-14T09:19:18.353Z,17.41
2023-05-14T09:20:18.299Z,17.35
2023-05-14T09:21:18.131Z,17.30
2023-05-14T09:22:18.529Z,17.29
2023-05-14T09:23:18.190Z,17.08
2023-05-14T09:24:18.160Z,16.90
2023-05-14T09:25:18.154Z,16.77
2023-05-14T09:26:18.185Z,16.88
2023-05-14T09:27:18.116Z,16.95
2023-05-14T09:28:18.128Z,16.98
2023-05-14T09:29:18.114Z,16.95
2023-05-14T09:30:18.114Z,17.00
2023-05-14T09:31:18.205Z,17.20
2023-05-14T09:32:18.095Z,17.28
2023-05-14T09:33:18.101Z,17.29
2023-05-14T09:34:18.122Z,17.25
2023-05-14T09:35:18.144Z,17.18
2023-05-14T09:36:18.122Z,17.07
2023-05-14T09:37:17.972Z,16.92
2023-05-14T09:38:18.047Z,16.77
2023-05-14T09:39:18.062Z,16.63
2023-05-14T09:40:17.982Z,16.49
2023-05-14T09:41:17.943Z,16.35
2023-05-14T09:42:17.936Z,16.22
2023-05-14T09:43:17.937Z,15.97
2023-05-14T09:44:18.065Z,15.84
2023-05-14T09:45:17.917Z,15.82
2023-05-14T09:46:17.884Z,15.84
2023-05-14T09:47:17.945Z,15.79
2023-05-14T09:48:17.939Z,15.78
2023-05-14T09:49:17.857Z,15.76
2023-05-14T09:50:17.846Z,15.64
2023-05-14T09:51:17.900Z,15.61
2023-05-14T09:52:17.843Z,15.52
2023-05-14T09:53:17.910Z,15.43
2023-05-14T09:54:17.846Z,15.41
2023-05-14T09:55:17.847Z,15.45
2023-05-14T09:56:18.107Z,15.42
2023-05-14T09:57:17.823Z,15.51
2023-05-14T09:58:17.860Z,15.49
2023-05-14T09:59:17.775Z,15.41
2023-05-14T10:00:17.797Z,15.38
2023-05-14T10:01:18.000Z,15.43
2023-05-14T10:02:17.761Z,15.41
2023-05-14T10:03:19.895Z,15.39
2023-05-14T10:04:17.734Z,15.49
2023-05-14T10:05:17.707Z,15.64
2023-05-14T10:06:17.697Z,15.74
2023-05-14T10:07:17.740Z,15.79
2023-05-14T10:08:17.710Z,15.99
2023-05-14T10:09:17.664Z,16.14
2023-05-14T10:10:17.769Z,16.22
2023-05-14T10:11:17.639Z,16.31
2023-05-14T10:12:17.660Z,16.42
2023-05-14T10:13:17.617Z,16.50
2023-05-14T10:14:17.638Z,16.62
2023-05-14T10:15:17.659Z,16.67
2023-05-14T10:16:17.668Z,16.70
2023-05-14T10:17:17.647Z,16.49
2023-05-14T10:18:17.557Z,16.56
2023-05-14T10:19:17.900Z,16.86
2023-05-14T10:20:17.892Z,17.08
2023-05-14T10:21:17.745Z,17.35
2023-05-14T10:22:17.511Z,17.59
2023-05-14T10:23:17.557Z,17.67
2023-05-14T10:24:17.508Z,17.81
2023-05-14T10:25:17.605Z,17.57
2023-05-14T10:26:17.486Z,17.43
2023-05-14T10:27:17.474Z,17.43
2023-05-14T10:28:17.483Z,17.54
2023-05-14T10:29:17.522Z,17.73
2023-05-14T10:30:17.416Z,17.71
2023-05-14T10:31:17.505Z,17.89
2023-05-14T10:32:17.408Z,17.79
2023-05-14T10:33:17.395Z,17.89
2023-05-14T10:34:17.398Z,18.21
2023-05-14T10:35:17.367Z,18.54
2023-05-14T10:36:17.359Z,18.68
2023-05-14T10:37:17.375Z,18.40
2023-05-14T10:38:17.359Z,18.34
2023-05-14T10:39:17.322Z,18.31
2023-05-14T10:40:17.311Z,18.27
2023-05-14T10:41:17.293Z,18.28
2023-05-14T10:42:17.293Z,18.17
2023-05-14T10:43:17.330Z,18.13
2023-05-14T10:44:17.272Z,18.13
2023-05-14T10:45:17.258Z,18.13
2023-05-14T10:46:17.282Z,18.22
2023-05-14T10:47:17.260Z,18.22
2023-05-14T10:48:17.312Z,18.10
2023-05-14T10:49:25.333Z,17.99
2023-05-14T10:50:17.232Z,17.89
2023-05-14T10:51:17.235Z,17.67
2023-05-14T10:52:17.219Z,17.59
2023-05-14T10:53:17.178Z,17.59
2023-05-14T10:54:17.264Z,17.44
2023-05-14T10:55:17.175Z,17.36
2023-05-14T10:56:17.148Z,17.23
2023-05-14T10:57:17.153Z,17.15
2023-05-14T10:58:17.128Z,17.23
2023-05-14T10:59:17.132Z,17.20
2023-05-14T11:00:17.126Z,17.28
2023-05-14T11:01:17.112Z,17.46
2023-05-14T11:02:17.142Z,17.54
2023-05-14T11:03:17.135Z,17.54
2023-05-14T11:04:17.193Z,17.53
2023-05-14T11:05:17.419Z,17.57
2023-05-14T11:06:17.090Z,17.82
2023-05-14T11:07:17.066Z,17.74
2023-05-14T11:08:17.045Z,17.74
2023-05-14T11:09:17.009Z,17.69
2023-05-14T11:10:17.065Z,17.70
2023-05-14T11:11:17.020Z,17.88
2023-05-14T11:12:17.005Z,17.89
2023-05-14T11:13:16.995Z,17.87
2023-05-14T11:14:16.965Z,17.54
2023-05-14T11:15:16.983Z,17.26
2023-05-14T11:16:23.318Z,17.04
2023-05-14T11:17:17.076Z,16.96
2023-05-14T11:18:17.040Z,17.06
2023-05-14T11:19:16.982Z,16.80
2023-05-14T11:20:16.948Z,16.60
2023-05-14T11:21:16.970Z,16.62
2023-05-14T11:22:16.892Z,16.63
2023-05-14T11:23:16.892Z,16.81
2023-05-14T11:24:16.881Z,17.03
2023-05-14T11:25:16.900Z,17.18
2023-05-14T11:26:17.875Z,17.46
2023-05-14T11:27:16.842Z,17.70
2023-05-14T11:28:16.915Z,17.94
2023-05-14T11:29:16.834Z,17.95
2023-05-14T11:30:16.905Z,17.70
2023-05-14T11:31:16.870Z,17.44
2023-05-14T11:32:16.820Z,17.44
2023-05-14T11:33:16.833Z,17.44
2023-05-14T11:34:16.801Z,17.50
2023-05-14T11:35:16.769Z,17.53
2023-05-14T11:36:16.761Z,17.74
2023-05-14T11:37:16.743Z,17.62
2023-05-14T11:38:16.761Z,17.46
2023-05-14T11:39:16.738Z,17.50
2023-05-14T11:40:16.887Z,17.71
2023-05-14T11:41:16.693Z,17.85
2023-05-14T11:42:16.697Z,17.87
2023-05-14T11:43:16.671Z,17.78
2023-05-14T11:44:16.748Z,17.71
2023-05-14T11:45:16.643Z,17.79
2023-05-14T11:46:16.671Z,18.04
2023-05-14T11:47:16.633Z,18.31
2023-05-14T11:48:16.645Z,18.59
2023-05-14T11:49:16.609Z,18.65
2023-05-14T11:50:16.650Z,18.82
2023-05-14T11:51:16.596Z,18.73
2023-05-14T11:52:16.617Z,18.49
2023-05-14T11:53:16.569Z,18.18
2023-05-14T11:54:16.794Z,17.76
2023-05-14T11:55:16.537Z,17.48
2023-05-14T11:56:16.542Z,17.36
2023-05-14T11:57:16.548Z,17.32
2023-05-14T11:58:16.527Z,17.30
2023-05-14T11:59:16.516Z,17.28
2023-05-14T12:00:16.500Z,17.13
2023-05-14T12:01:16.481Z,17.07
2023-05-14T12:02:16.534Z,17.04
2023-05-14T12:03:16.792Z,16.85
2023-05-14T12:04:16.485Z,16.71
2023-05-14T12:05:16.436Z,16.71
2023-05-14T12:06:16.454Z,16.52
2023-05-14T12:07:16.455Z,16.52
2023-05-14T12:08:16.654Z,16.44
2023-05-14T12:09:16.401Z,16.42
2023-05-14T12:10:16.407Z,16.41
2023-05-14T12:11:16.395Z,16.53
2023-05-14T12:12:16.425Z,16.65
2023-05-14T12:13:16.352Z,16.80
2023-05-14T12:14:16.418Z,16.81
2023-05-14T12:15:16.326Z,16.92
2023-05-14T12:16:16.384Z,16.90
2023-05-14T12:17:16.308Z,17.03
2023-05-14T12:18:24.056Z,17.06
2023-05-14T12:19:16.318Z,16.89
2023-05-14T12:20:16.341Z,16.78
2023-05-14T12:21:16.332Z,16.83
2023-05-14T12:22:16.326Z,16.74
2023-05-14T12:23:16.311Z,16.77
2023-05-14T12:24:16.246Z,16.73
2023-05-14T12:25:16.312Z,16.80
2023-05-14T12:26:16.246Z,16.70
2023-05-14T12:27:16.328Z,16.71
2023-05-14T12:28:16.202Z,16.73
2023-05-14T12:29:16.183Z,16.59
2023-05-14T12:30:21.939Z,16.60
2023-05-14T12:31:16.203Z,16.50
2023-05-14T12:32:16.150Z,16.56
2023-05-14T12:33:16.239Z,16.45
2023-05-14T12:34:16.201Z,16.37
2023-05-14T12:35:16.165Z,16.20
2023-05-14T12:36:21.733Z,16.11
2023-05-14T12:37:16.153Z,16.14
2023-05-14T12:38:16.122Z,16.18
2023-05-14T12:39:16.175Z,16.25
2023-05-14T12:40:16.128Z,16.22
2023-05-14T12:41:16.137Z,16.25
2023-05-14T12:42:16.053Z,16.30
2023-05-14T12:43:16.055Z,16.34
2023-05-14T12:44:16.044Z,16.42
2023-05-14T12:45:16.013Z,16.50
2023-05-14T12:46:16.030Z,16.55
2023-05-14T12:47:16.084Z,16.49
2023-05-14T12:48:16.163Z,16.62
2023-05-14T12:49:15.987Z,16.73
2023-05-14T12:50:15.980Z,16.81
2023-05-14T12:51:15.986Z,16.77
2023-05-14T12:53:15.979Z,16.65